sensor_id;sensor_type;location;lat;lon;timestamp;pressure;altitude;pressure_sealevel;temperature
76583;BMP280;65462;52.148;7.940;2023-01-16T00:01:35;98922.09;;;5.94
76583;BMP280;65462;52.148;7.940;2023-01-16T00:04:01;98920.59;;;5.93
76583;BMP280;65462;52.148;7.940;2023-01-16T00:06:26;98914.13;;;5.91
76583;BMP280;65462;52.148;7.940;2023-01-16T00:08:51;98912.38;;;5.95
76583;BMP280;65462;52.148;7.940;2023-01-16T00:11:17;98904.88;;;5.93
76583;BMP280;65462;52.148;7.940;2023-01-16T00:13:42;98908.13;;;5.90
76583;BMP280;65462;52.148;7.940;2023-01-16T00:16:08;98900.28;;;5.90
76583;BMP280;65462;52.148;7.940;2023-01-16T00:18:33;98896.53;;;5.91
76583;BMP280;65462;52.148;7.940;2023-01-16T00:20:59;98883.13;;;5.93
76583;BMP280;65462;52.148;7.940;2023-01-16T00:23:24;98889.91;;;5.94
76583;BMP280;65462;52.148;7.940;2023-01-16T00:25:50;98874.38;;;5.89
76583;BMP280;65462;52.148;7.940;2023-01-16T00:28:15;98869.59;;;5.91
76583;BMP280;65462;52.148;7.940;2023-01-16T00:30:41;98868.06;;;5.90
76583;BMP280;65462;52.148;7.940;2023-01-16T00:33:08;98863.47;;;5.87
76583;BMP280;65462;52.148;7.940;2023-01-16T00:35:33;98849.94;;;5.85
76583;BMP280;65462;52.148;7.940;2023-01-16T00:37:59;98855.53;;;5.83
76583;BMP280;65462;52.148;7.940;2023-01-16T00:40:25;98857.38;;;5.83
76583;BMP280;65462;52.148;7.940;2023-01-16T00:42:50;98853.22;;;5.82
76583;BMP280;65462;52.148;7.940;2023-01-16T00:45:16;98839.25;;;5.78
76583;BMP280;65462;52.148;7.940;2023-01-16T00:47:41;98836.41;;;5.83
76583;BMP280;65462;52.148;7.940;2023-01-16T00:50:07;98833.78;;;5.83
76583;BMP280;65462;52.148;7.940;2023-01-16T00:52:33;98830.09;;;5.84
76583;BMP280;65462;52.148;7.940;2023-01-16T00:54:58;98830.09;;;5.84
76583;BMP280;65462;52.148;7.940;2023-01-16T00:57:24;98833.38;;;5.81
76583;BMP280;65462;52.148;7.940;2023-01-16T00:59:49;98820.16;;;5.77
76583;BMP280;65462;52.148;7.940;2023-01-16T01:02:14;98816.41;;;5.78
76583;BMP280;65462;52.148;7.940;2023-01-16T01:04:40;98811.19;;;5.78
76583;BMP280;65462;52.148;7.940;2023-01-16T01:07:05;98805.50;;;5.76
76583;BMP280;65462;52.148;7.940;2023-01-16T01:09:31;98809.09;;;5.71
76583;BMP280;65462;52.148;7.940;2023-01-16T01:11:57;98796.25;;;5.66
76583;BMP280;65462;52.148;7.940;2023-01-16T01:14:23;98798.88;;;5.66
76583;BMP280;65462;52.148;7.940;2023-01-16T01:16:48;98798.44;;;5.64
76583;BMP280;65462;52.148;7.940;2023-01-16T01:19:14;98807.38;;;5.63
76583;BMP280;65462;52.148;7.940;2023-01-16T01:21:39;98800.19;;;5.60
76583;BMP280;65462;52.148;7.940;2023-01-16T01:24:05;98792.97;;;5.57
76583;BMP280;65462;52.148;7.940;2023-01-16T01:26:30;98801.25;;;5.59
76583;BMP280;65462;52.148;7.940;2023-01-16T01:28:55;98797.34;;;5.53
76583;BMP280;65462;52.148;7.940;2023-01-16T01:31:21;98788.28;;;5.51
76583;BMP280;65462;52.148;7.940;2023-01-16T01:33:46;98788.16;;;5.47
76583;BMP280;65462;52.148;7.940;2023-01-16T01:36:11;98766.78;;;5.33
76583;BMP280;65462;52.148;7.940;2023-01-16T01:38:37;98776.59;;;5.36
76583;BMP280;65462;52.148;7.940;2023-01-16T01:41:03;98764.63;;;5.35
76583;BMP280;65462;52.148;7.940;2023-01-16T01:43:46;98760.69;;;5.29
76583;BMP280;65462;52.148;7.940;2023-01-16T01:48:47;98735.59;;;5.28
76583;BMP280;65462;52.148;7.940;2023-01-16T01:51:19;98737.88;;;5.30
76583;BMP280;65462;52.148;7.940;2023-01-16T01:54:01;98744.97;;;5.29
76583;BMP280;65462;52.148;7.940;2023-01-16T01:56:33;98716.94;;;5.30
76583;BMP280;65462;52.148;7.940;2023-01-16T01:59:04;98710.97;;;5.29
76583;BMP280;65462;52.148;7.940;2023-01-16T02:01:31;98708.34;;;5.29
76583;BMP280;65462;52.148;7.940;2023-01-16T02:04:05;98705.25;;;5.27
76583;BMP280;65462;52.148;7.940;2023-01-16T02:06:41;98695.44;;;5.24
76583;BMP280;65462;52.148;7.940;2023-01-16T02:09:08;98687.19;;;5.22
76583;BMP280;65462;52.148;7.940;2023-01-16T02:11:38;98685.66;;;5.21
76583;BMP280;65462;52.148;7.940;2023-01-16T02:14:08;98681.50;;;5.20
76583;BMP280;65462;52.148;7.940;2023-01-16T02:16:34;98677.38;;;5.19
76583;BMP280;65462;52.148;7.940;2023-01-16T02:19:42;98669.19;;;5.21
76583;BMP280;65462;52.148;7.940;2023-01-16T02:23:15;98658.72;;;5.21
76583;BMP280;65462;52.148;7.940;2023-01-16T02:27:59;98643.38;;;5.19
76583;BMP280;65462;52.148;7.940;2023-01-16T02:44:49;98610.66;;;5.13
76583;BMP280;65462;52.148;7.940;2023-01-16T02:47:24;98601.38;;;5.16
76583;BMP280;65462;52.148;7.940;2023-01-16T02:50:04;98592.78;;;5.15
76583;BMP280;65462;52.148;7.940;2023-01-16T02:52:42;98588.31;;;5.16
76583;BMP280;65462;52.148;7.940;2023-01-16T02:55:28;98590.91;;;5.16
76583;BMP280;65462;52.148;7.940;2023-01-16T02:57:58;98583.06;;;5.16
76583;BMP280;65462;52.148;7.940;2023-01-16T03:00:24;98570.75;;;5.16
76583;BMP280;65462;52.148;7.940;2023-01-16T03:02:50;98570.75;;;5.16
76583;BMP280;65462;52.148;7.940;2023-01-16T03:05:15;98570.41;;;5.18
76583;BMP280;65462;52.148;7.940;2023-01-16T03:18:52;98552.44;;;5.16
76583;BMP280;65462;52.148;7.940;2023-01-16T03:30:12;98540.47;;;5.03
76583;BMP280;65462;52.148;7.940;2023-01-16T03:32:45;98556.19;;;5.03
76583;BMP280;65462;52.148;7.940;2023-01-16T03:35:35;98531.44;;;5.00
76583;BMP280;65462;52.148;7.940;2023-01-16T03:38:10;98540.69;;;4.98
76583;BMP280;65462;52.148;7.940;2023-01-16T03:40:40;98532.53;;;4.99
76583;BMP280;65462;52.148;7.940;2023-01-16T03:43:14;98512.78;;;5.02
76583;BMP280;65462;52.148;7.940;2023-01-16T03:45:43;98507.13;;;5.00
76583;BMP280;65462;52.148;7.940;2023-01-16T03:50:46;98506.25;;;4.96
76583;BMP280;65462;52.148;7.940;2023-01-16T03:53:15;98505.16;;;4.97
76583;BMP280;65462;52.148;7.940;2023-01-16T03:55:52;98499.19;;;4.96
76583;BMP280;65462;52.148;7.940;2023-01-16T03:58:33;98494.25;;;4.95
76583;BMP280;65462;52.148;7.940;2023-01-16T04:01:13;98502.75;;;4.92
76583;BMP280;65462;52.148;7.940;2023-01-16T04:03:54;98497.34;;;4.85
76583;BMP280;65462;52.148;7.940;2023-01-16T04:06:37;98492.44;;;4.83
76583;BMP280;65462;52.148;7.940;2023-01-16T04:09:10;98491.25;;;4.81
76583;BMP280;65462;52.148;7.940;2023-01-16T04:11:38;98491.91;;;4.78
76583;BMP280;65462;52.148;7.940;2023-01-16T04:14:09;98487.97;;;4.72
76583;BMP280;65462;52.148;7.940;2023-01-16T04:16:35;98488.22;;;4.67
76583;BMP280;65462;52.148;7.940;2023-01-16T04:19:02;98478.41;;;4.64
76583;BMP280;65462;52.148;7.940;2023-01-16T04:21:28;98474.50;;;4.58
76583;BMP280;65462;52.148;7.940;2023-01-16T04:23:56;98480.72;;;4.53
76583;BMP280;65462;52.148;7.940;2023-01-16T04:26:24;98476.78;;;4.47
76583;BMP280;65462;52.148;7.940;2023-01-16T04:28:49;98474.81;;;4.44
76583;BMP280;65462;52.148;7.940;2023-01-16T04:31:20;98461.66;;;4.40
76583;BMP280;65462;52.148;7.940;2023-01-16T04:33:46;98462.56;;;4.32
76583;BMP280;65462;52.148;7.940;2023-01-16T04:36:11;98452.75;;;4.29
76583;BMP280;65462;52.148;7.940;2023-01-16T04:38:36;98451.97;;;4.29
76583;BMP280;65462;52.148;7.940;2023-01-16T04:41:02;98444.91;;;4.29
76583;BMP280;65462;52.148;7.940;2023-01-16T04:43:27;98432.16;;;4.28
76583;BMP280;65462;52.148;7.940;2023-01-16T04:45:52;98433.25;;;4.27
76583;BMP280;65462;52.148;7.940;2023-01-16T04:48:18;98420.94;;;4.27
76583;BMP280;65462;52.148;7.940;2023-01-16T04:50:43;98409.31;;;4.25
76583;BMP280;65462;52.148;7.940;2023-01-16T04:53:12;98403.97;;;4.21
76583;BMP280;65462;52.148;7.940;2023-01-16T04:55:37;98393.50;;;4.21
76583;BMP280;65462;52.148;7.940;2023-01-16T04:58:03;98390.47;;;4.19
76583;BMP280;65462;52.148;7.940;2023-01-16T05:00:28;98397.84;;;4.17
76583;BMP280;65462;52.148;7.940;2023-01-16T05:02:53;98385.91;;;4.16
76583;BMP280;65462;52.148;7.940;2023-01-16T05:05:19;98379.47;;;4.14
76583;BMP280;65462;52.148;7.940;2023-01-16T05:07:44;98381.13;;;4.06
76583;BMP280;65462;52.148;7.940;2023-01-16T05:10:10;98371.75;;;4.05
76583;BMP280;65462;52.148;7.940;2023-01-16T05:12:35;98366.22;;;4.07
76583;BMP280;65462;52.148;7.940;2023-01-16T05:15:00;98366.97;;;4.07
76583;BMP280;65462;52.148;7.940;2023-01-16T05:17:26;98359.91;;;4.08
76583;BMP280;65462;52.148;7.940;2023-01-16T05:19:51;98361.44;;;4.09
76583;BMP280;65462;52.148;7.940;2023-01-16T05:22:17;98354.69;;;4.08
76583;BMP280;65462;52.148;7.940;2023-01-16T05:24:42;98357.28;;;4.08
76583;BMP280;65462;52.148;7.940;2023-01-16T05:27:08;98339.34;;;4.06
76583;BMP280;65462;52.148;7.940;2023-01-16T05:29:33;98340.44;;;4.05
76583;BMP280;65462;52.148;7.940;2023-01-16T05:31:58;98334.00;;;4.03
76583;BMP280;65462;52.148;7.940;2023-01-16T05:34:23;98317.56;;;4.02
76583;BMP280;65462;52.148;7.940;2023-01-16T05:36:49;98322.69;;;3.99
76583;BMP280;65462;52.148;7.940;2023-01-16T05:39:14;98306.25;;;3.98
76583;BMP280;65462;52.148;7.940;2023-01-16T05:41:40;98315.19;;;3.97
76583;BMP280;65462;52.148;7.940;2023-01-16T05:44:05;98299.06;;;3.95
76583;BMP280;65462;52.148;7.940;2023-01-16T05:46:30;98293.44;;;3.93
76583;BMP280;65462;52.148;7.940;2023-01-16T05:48:55;98290.41;;;3.91
76583;BMP280;65462;52.148;7.940;2023-01-16T05:51:21;98292.59;;;3.89
76583;BMP280;65462;52.148;7.940;2023-01-16T05:53:50;98285.09;;;3.87
76583;BMP280;65462;52.148;7.940;2023-01-16T05:56:20;98284.31;;;3.87
76583;BMP280;65462;52.148;7.940;2023-01-16T05:58:46;98272.34;;;3.86
76583;BMP280;65462;52.148;7.940;2023-01-16T06:01:11;98257.34;;;3.83
76583;BMP280;65462;52.148;7.940;2023-01-16T06:03:36;98255.69;;;3.78
76583;BMP280;65462;52.148;7.940;2023-01-16T06:06:01;98248.97;;;3.77
76583;BMP280;65462;52.148;7.940;2023-01-16T06:08:27;98246.25;;;3.74
76583;BMP280;65462;52.148;7.940;2023-01-16T06:10:52;98245.78;;;3.72
76583;BMP280;65462;52.148;7.940;2023-01-16T06:13:17;98238.41;;;3.74
76583;BMP280;65462;52.148;7.940;2023-01-16T06:15:42;98234.63;;;3.71
76583;BMP280;65462;52.148;7.940;2023-01-16T06:18:08;98220.28;;;3.65
76583;BMP280;65462;52.148;7.940;2023-01-16T06:20:33;98223.66;;;3.66
76583;BMP280;65462;52.148;7.940;2023-01-16T06:22:58;98210.50;;;3.62
76583;BMP280;65462;52.148;7.940;2023-01-16T06:25:24;98217.53;;;3.62
76583;BMP280;65462;52.148;7.940;2023-01-16T06:27:50;98225.72;;;3.60
76583;BMP280;65462;52.148;7.940;2023-01-16T06:30:16;98211.91;;;3.60
76583;BMP280;65462;52.148;7.940;2023-01-16T06:32:42;98211.03;;;3.56
76583;BMP280;65462;52.148;7.940;2023-01-16T06:35:07;98194.53;;;3.52
76583;BMP280;65462;52.148;7.940;2023-01-16T06:37:33;98197.25;;;3.55
76583;BMP280;65462;52.148;7.940;2023-01-16T06:39:58;98194.53;;;3.52
76583;BMP280;65462;52.148;7.940;2023-01-16T06:42:25;98190.69;;;3.49
76583;BMP280;65462;52.148;7.940;2023-01-16T06:44:50;98182.88;;;3.49
76583;BMP280;65462;52.148;7.940;2023-01-16T06:47:15;98191.81;;;3.48
76583;BMP280;65462;52.148;7.940;2023-01-16T06:49:41;98174.31;;;3.49
76583;BMP280;65462;52.148;7.940;2023-01-16T06:52:06;98171.94;;;3.44
76583;BMP280;65462;52.148;7.940;2023-01-16T06:54:31;98171.50;;;3.42
76583;BMP280;65462;52.148;7.940;2023-01-16T06:56:57;98162.16;;;3.41
76583;BMP280;65462;52.148;7.940;2023-01-16T06:59:22;98151.06;;;3.44
76583;BMP280;65462;52.148;7.940;2023-01-16T07:01:47;98149.53;;;3.43
76583;BMP280;65462;52.148;7.940;2023-01-16T07:04:12;98144.31;;;3.43
76583;BMP280;65462;52.148;7.940;2023-01-16T07:06:38;98135.31;;;3.40
76583;BMP280;65462;52.148;7.940;2023-01-16T07:09:04;98126.28;;;3.38
76583;BMP280;65462;52.148;7.940;2023-01-16T07:11:29;98120.41;;;3.41
76583;BMP280;65462;52.148;7.940;2023-01-16T07:13:55;98118.56;;;3.41
76583;BMP280;65462;52.148;7.940;2023-01-16T07:16:40;98113.66;;;3.40
76583;BMP280;65462;52.148;7.940;2023-01-16T07:19:24;98100.63;;;3.40
76583;BMP280;65462;52.148;7.940;2023-01-16T07:22:12;98100.22;;;3.38
76583;BMP280;65462;52.148;7.940;2023-01-16T07:24:57;98093.47;;;3.37
76583;BMP280;65462;52.148;7.940;2023-01-16T07:27:23;98085.41;;;3.29
76583;BMP280;65462;52.148;7.940;2023-01-16T07:29:48;98088.13;;;3.33
76583;BMP280;65462;52.148;7.940;2023-01-16T07:32:14;98075.84;;;3.33
76583;BMP280;65462;52.148;7.940;2023-01-16T07:34:39;98063.47;;;3.30
76583;BMP280;65462;52.148;7.940;2023-01-16T07:37:04;98066.09;;;3.30
76583;BMP280;65462;52.148;7.940;2023-01-16T07:39:32;98060.97;;;3.34
76583;BMP280;65462;52.148;7.940;2023-01-16T07:42:05;98049.47;;;3.35
76583;BMP280;65462;52.148;7.940;2023-01-16T07:44:31;98044.66;;;3.37
76583;BMP280;65462;52.148;7.940;2023-01-16T07:46:56;98045.00;;;3.36
76583;BMP280;65462;52.148;7.940;2023-01-16T07:49:21;98046.50;;;3.37
76583;BMP280;65462;52.148;7.940;2023-01-16T07:51:46;98038.47;;;3.42
76583;BMP280;65462;52.148;7.940;2023-01-16T07:54:12;98031.72;;;3.41
76583;BMP280;65462;52.148;7.940;2023-01-16T07:56:38;98022.81;;;3.42
76583;BMP280;65462;52.148;7.940;2023-01-16T07:59:03;98014.66;;;3.43
76583;BMP280;65462;52.148;7.940;2023-01-16T08:01:29;97997.94;;;3.44
76583;BMP280;65462;52.148;7.940;2023-01-16T08:03:54;97996.75;;;3.42
76583;BMP280;65462;52.148;7.940;2023-01-16T08:06:19;97975.88;;;3.42
76583;BMP280;65462;52.148;7.940;2023-01-16T08:08:44;97976.72;;;3.46
76583;BMP280;65462;52.148;7.940;2023-01-16T08:11:10;97978.66;;;3.49
76583;BMP280;65462;52.148;7.940;2023-01-16T08:13:54;97976.06;;;3.49
76583;BMP280;65462;52.148;7.940;2023-01-16T08:16:19;97964.50;;;3.50
76583;BMP280;65462;52.148;7.940;2023-01-16T08:18:44;97963.41;;;3.51
76583;BMP280;65462;52.148;7.940;2023-01-16T08:21:13;97957.13;;;3.52
76583;BMP280;65462;52.148;7.940;2023-01-16T08:23:38;97944.91;;;3.56
76583;BMP280;65462;52.148;7.940;2023-01-16T08:26:05;97942.75;;;3.58
76583;BMP280;65462;52.148;7.940;2023-01-16T08:28:30;97938.63;;;3.57
76583;BMP280;65462;52.148;7.940;2023-01-16T08:30:55;97935.34;;;3.60
76583;BMP280;65462;52.148;7.940;2023-01-16T08:33:20;97921.22;;;3.61
76583;BMP280;65462;52.148;7.940;2023-01-16T08:35:46;97908.84;;;3.58
76583;BMP280;65462;52.148;7.940;2023-01-16T08:38:11;97902.50;;;3.59
76583;BMP280;65462;52.148;7.940;2023-01-16T08:40:36;97892.06;;;3.59
76583;BMP280;65462;52.148;7.940;2023-01-16T08:43:01;97899.22;;;3.62
76583;BMP280;65462;52.148;7.940;2023-01-16T08:45:45;97886.28;;;3.65
76583;BMP280;65462;52.148;7.940;2023-01-16T08:48:29;97891.16;;;3.67
76583;BMP280;65462;52.148;7.940;2023-01-16T08:51:18;97883.75;;;3.69
76583;BMP280;65462;52.148;7.940;2023-01-16T08:53:47;97880.88;;;3.74
76583;BMP280;65462;52.148;7.940;2023-01-16T08:56:12;97874.22;;;3.76
76583;BMP280;65462;52.148;7.940;2023-01-16T08:58:38;97869.34;;;3.75
76583;BMP280;65462;52.148;7.940;2023-01-16T09:01:03;97869.09;;;3.80
76583;BMP280;65462;52.148;7.940;2023-01-16T09:03:28;97847.13;;;3.81
76583;BMP280;65462;52.148;7.940;2023-01-16T09:05:54;97857.00;;;3.87
76583;BMP280;65462;52.148;7.940;2023-01-16T09:08:19;97844.75;;;3.92
76583;BMP280;65462;52.148;7.940;2023-01-16T09:10:44;97833.97;;;3.93
76583;BMP280;65462;52.148;7.940;2023-01-16T09:13:30;97837.75;;;3.96
76583;BMP280;65462;52.148;7.940;2023-01-16T09:16:24;97813.56;;;3.99
76583;BMP280;65462;52.148;7.940;2023-01-16T09:18:50;97819.16;;;3.97
76583;BMP280;65462;52.148;7.940;2023-01-16T09:21:16;97797.91;;;3.99
76583;BMP280;65462;52.148;7.940;2023-01-16T09:23:43;97792.44;;;4.04
76583;BMP280;65462;52.148;7.940;2023-01-16T09:26:08;97790.31;;;4.09
76583;BMP280;65462;52.148;7.940;2023-01-16T09:28:34;97785.09;;;4.09
76583;BMP280;65462;52.148;7.940;2023-01-16T09:30:59;97780.00;;;4.16
76583;BMP280;65462;52.148;7.940;2023-01-16T09:33:24;97776.28;;;4.17
76583;BMP280;65462;52.148;7.940;2023-01-16T09:35:49;97771.81;;;4.18
76583;BMP280;65462;52.148;7.940;2023-01-16T09:38:15;97758.06;;;4.21
76583;BMP280;65462;52.148;7.940;2023-01-16T09:40:44;97751.41;;;4.23
76583;BMP280;65462;52.148;7.940;2023-01-16T09:43:30;97752.59;;;4.26
76583;BMP280;65462;52.148;7.940;2023-01-16T09:46:14;97747.44;;;4.29
76583;BMP280;65462;52.148;7.940;2023-01-16T09:48:54;97744.88;;;4.33
76583;BMP280;65462;52.148;7.940;2023-01-16T09:51:24;97742.69;;;4.35
76583;BMP280;65462;52.148;7.940;2023-01-16T09:54:12;97743.44;;;4.35
76583;BMP280;65462;52.148;7.940;2023-01-16T09:57:02;97728.94;;;4.38
76583;BMP280;65462;52.148;7.940;2023-01-16T09:59:55;97730.44;;;4.39
76583;BMP280;65462;52.148;7.940;2023-01-16T10:02:26;97713.66;;;4.40
76583;BMP280;65462;52.148;7.940;2023-01-16T10:04:54;97715.50;;;4.39
76583;BMP280;65462;52.148;7.940;2023-01-16T10:07:31;97714.81;;;4.42
76583;BMP280;65462;52.148;7.940;2023-01-16T10:12:53;97686.50;;;4.44
76583;BMP280;65462;52.148;7.940;2023-01-16T10:15:35;97679.06;;;4.46
76583;BMP280;65462;52.148;7.940;2023-01-16T10:20:38;97659.41;;;4.53
76583;BMP280;65462;52.148;7.940;2023-01-16T10:25:43;97652.75;;;4.59
76583;BMP280;65462;52.148;7.940;2023-01-16T10:28:28;97631.13;;;4.58
76583;BMP280;65462;52.148;7.940;2023-01-16T10:31:23;97642.72;;;4.61
76583;BMP280;65462;52.148;7.940;2023-01-16T10:33:52;97628.22;;;4.63
76583;BMP280;65462;52.148;7.940;2023-01-16T10:36:27;97631.59;;;4.64
76583;BMP280;65462;52.148;7.940;2023-01-16T10:38:56;97615.22;;;4.67
76583;BMP280;65462;52.148;7.940;2023-01-16T10:41:30;97609.28;;;4.70
76583;BMP280;65462;52.148;7.940;2023-01-16T10:44:26;97601.09;;;4.71
76583;BMP280;65462;52.148;7.940;2023-01-16T10:47:12;97590.66;;;4.75
76583;BMP280;65462;52.148;7.940;2023-01-16T10:49:56;97591.06;;;4.77
76583;BMP280;65462;52.148;7.940;2023-01-16T10:52:22;97587.69;;;4.76
76583;BMP280;65462;52.148;7.940;2023-01-16T10:54:48;97577.31;;;4.80
76583;BMP280;65462;52.148;7.940;2023-01-16T10:57:17;97572.09;;;4.80
76583;BMP280;65462;52.148;7.940;2023-01-16T10:59:44;97567.25;;;4.82
76583;BMP280;65462;52.148;7.940;2023-01-16T11:02:29;97566.53;;;4.85
76583;BMP280;65462;52.148;7.940;2023-01-16T11:04:54;97558.69;;;4.85
76583;BMP280;65462;52.148;7.940;2023-01-16T11:07:21;97548.25;;;4.85
76583;BMP280;65462;52.148;7.940;2023-01-16T11:09:47;97546.06;;;4.87
76583;BMP280;65462;52.148;7.940;2023-01-16T11:12:23;97545.69;;;4.88
76583;BMP280;65462;52.148;7.940;2023-01-16T11:15:20;97544.25;;;4.94
76583;BMP280;65462;52.148;7.940;2023-01-16T11:18:29;97540.94;;;4.97
76583;BMP280;65462;52.148;7.940;2023-01-16T11:20:57;97532.75;;;4.99
76583;BMP280;65462;52.148;7.940;2023-01-16T11:23:27;97524.59;;;5.04
76583;BMP280;65462;52.148;7.940;2023-01-16T11:25:56;97515.66;;;5.05
76583;BMP280;65462;52.148;7.940;2023-01-16T11:28:28;97510.41;;;5.05
76583;BMP280;65462;52.148;7.940;2023-01-16T11:30:57;97513.81;;;5.09
76583;BMP280;65462;52.148;7.940;2023-01-16T11:33:33;97532.13;;;5.09
76583;BMP280;65462;52.148;7.940;2023-01-16T11:36:02;97497.69;;;5.07
76583;BMP280;65462;52.148;7.940;2023-01-16T11:38:30;97499.22;;;5.08
76583;BMP280;65462;52.148;7.940;2023-01-16T11:41:00;97490.28;;;5.09
76583;BMP280;65462;52.148;7.940;2023-01-16T11:43:27;97486.94;;;5.12
76583;BMP280;65462;52.148;7.940;2023-01-16T11:48:54;97480.91;;;5.08
76583;BMP280;65462;52.148;7.940;2023-01-16T11:51:24;97491.38;;;5.08
76583;BMP280;65462;52.148;7.940;2023-01-16T11:53:52;97483.19;;;5.09
76583;BMP280;65462;52.148;7.940;2023-01-16T11:59:07;97467.50;;;5.09
76583;BMP280;65462;52.148;7.940;2023-01-16T12:04:22;97461.84;;;5.07
76583;BMP280;65462;52.148;7.940;2023-01-16T12:14:55;97431.47;;;4.96
76583;BMP280;65462;52.148;7.940;2023-01-16T12:17:49;97426.59;;;4.94
76583;BMP280;65462;52.148;7.940;2023-01-16T12:21:08;97422.84;;;4.92
76583;BMP280;65462;52.148;7.940;2023-01-16T12:23:41;97411.66;;;4.95
76583;BMP280;65462;52.148;7.940;2023-01-16T12:26:26;97392.97;;;4.93
76583;BMP280;65462;52.148;7.940;2023-01-16T12:31:54;97380.28;;;4.95
76583;BMP280;65462;52.148;7.940;2023-01-16T12:56:36;97319.25;;;5.17
76583;BMP280;65462;52.148;7.940;2023-01-16T12:59:26;97319.25;;;5.17
76583;BMP280;65462;52.148;7.940;2023-01-16T13:02:08;97314.78;;;5.18
76583;BMP280;65462;52.148;7.940;2023-01-16T13:04:46;97301.34;;;5.19
76583;BMP280;65462;52.148;7.940;2023-01-16T13:07:16;97296.13;;;5.19
76583;BMP280;65462;52.148;7.940;2023-01-16T13:10:16;97286.41;;;5.23
76583;BMP280;65462;52.148;7.940;2023-01-16T13:13:20;97278.94;;;5.22
76583;BMP280;65462;52.148;7.940;2023-01-16T13:15:56;97270.72;;;5.23
76583;BMP280;65462;52.148;7.940;2023-01-16T13:18:51;97267.00;;;5.28
76583;BMP280;65462;52.148;7.940;2023-01-16T13:21:22;97272.25;;;5.28
76583;BMP280;65462;52.148;7.940;2023-01-16T13:23:57;97257.31;;;5.28
76583;BMP280;65462;52.148;7.940;2023-01-16T13:26:24;97247.59;;;5.29
76583;BMP280;65462;52.148;7.940;2023-01-16T13:34:03;97249.56;;;5.39
76583;BMP280;65462;52.148;7.940;2023-01-16T13:41:43;97236.47;;;5.46
76583;BMP280;65462;52.148;7.940;2023-01-16T13:44:20;97231.25;;;5.46
76583;BMP280;65462;52.148;7.940;2023-01-16T13:47:08;97235.75;;;5.45
76583;BMP280;65462;52.148;7.940;2023-01-16T13:49:34;97220.78;;;5.46
76583;BMP280;65462;52.148;7.940;2023-01-16T13:52:01;97223.03;;;5.47
76583;BMP280;65462;52.148;7.940;2023-01-16T13:54:43;97213.34;;;5.51
76583;BMP280;65462;52.148;7.940;2023-01-16T13:57:19;97210.34;;;5.53
76583;BMP280;65462;52.148;7.940;2023-01-16T13:59:51;97208.13;;;5.55
76583;BMP280;65462;52.148;7.940;2023-01-16T14:10:42;97182.31;;;5.57
76583;BMP280;65462;52.148;7.940;2023-01-16T14:15:59;97177.84;;;5.54
76583;BMP280;65462;52.148;7.940;2023-01-16T14:21:27;97163.25;;;5.49
76583;BMP280;65462;52.148;7.940;2023-01-16T14:23:56;97167.34;;;5.50
76583;BMP280;65462;52.148;7.940;2023-01-16T14:29:13;97161.38;;;5.50
76583;BMP280;65462;52.148;7.940;2023-01-16T14:31:41;97158.00;;;5.49
76583;BMP280;65462;52.148;7.940;2023-01-16T14:34:16;97140.81;;;5.48
76583;BMP280;65462;52.148;7.940;2023-01-16T14:36:43;97156.13;;;5.46
76583;BMP280;65462;52.148;7.940;2023-01-16T14:39:33;97143.78;;;5.47
76583;BMP280;65462;52.148;7.940;2023-01-16T14:42:03;97137.06;;;5.49
76583;BMP280;65462;52.148;7.940;2023-01-16T14:51:01;97135.22;;;5.50
76583;BMP280;65462;52.148;7.940;2023-01-16T14:54:19;97138.50;;;5.40
76583;BMP280;65462;52.148;7.940;2023-01-16T14:57:16;97140.78;;;5.41
76583;BMP280;65462;52.148;7.940;2023-01-16T14:59:58;97138.16;;;5.38
76583;BMP280;65462;52.148;7.940;2023-01-16T15:02:31;97128.06;;;5.33
76583;BMP280;65462;52.148;7.940;2023-01-16T15:07:50;97109.34;;;5.31
76583;BMP280;65462;52.148;7.940;2023-01-16T15:10:51;97109.69;;;5.26
76583;BMP280;65462;52.148;7.940;2023-01-16T15:13:26;97102.19;;;5.24
76583;BMP280;65462;52.148;7.940;2023-01-16T15:16:17;97098.84;;;5.20
76583;BMP280;65462;52.148;7.940;2023-01-16T15:18:43;97098.09;;;5.20
76583;BMP280;65462;52.148;7.940;2023-01-16T15:21:27;97095.09;;;5.18
76583;BMP280;65462;52.148;7.940;2023-01-16T15:24:17;97090.25;;;5.16
76583;BMP280;65462;52.148;7.940;2023-01-16T15:26:48;97088.34;;;5.13
76583;BMP280;65462;52.148;7.940;2023-01-16T15:32:13;97083.09;;;5.09
76583;BMP280;65462;52.148;7.940;2023-01-16T15:34:43;97073.00;;;5.08
76583;BMP280;65462;52.148;7.940;2023-01-16T15:37:20;97071.88;;;5.05
76583;BMP280;65462;52.148;7.940;2023-01-16T15:39:45;97069.63;;;5.04
76583;BMP280;65462;52.148;7.940;2023-01-16T15:42:20;97061.78;;;5.04
76583;BMP280;65462;52.148;7.940;2023-01-16T15:45:16;97057.69;;;5.03
76583;BMP280;65462;52.148;7.940;2023-01-16T15:51:16;97048.69;;;4.97
76583;BMP280;65462;52.148;7.940;2023-01-16T15:53:45;97037.47;;;4.96
76583;BMP280;65462;52.148;7.940;2023-01-16T15:56:24;97044.59;;;4.99
76583;BMP280;65462;52.148;7.940;2023-01-16T15:58:51;97043.84;;;4.99
76583;BMP280;65462;52.148;7.940;2023-01-16T16:01:28;97036.34;;;4.97
76583;BMP280;65462;52.148;7.940;2023-01-16T16:03:54;97032.25;;;4.96
76583;BMP280;65462;52.148;7.940;2023-01-16T16:06:20;97026.25;;;4.96
76583;BMP280;65462;52.148;7.940;2023-01-16T16:08:49;97029.25;;;4.98
76583;BMP280;65462;52.148;7.940;2023-01-16T16:11:26;97030.75;;;4.95
76583;BMP280;65462;52.148;7.940;2023-01-16T16:14:12;97029.97;;;4.95
76583;BMP280;65462;52.148;7.940;2023-01-16T16:17:04;97035.22;;;4.95
76583;BMP280;65462;52.148;7.940;2023-01-16T16:19:49;97027.00;;;4.93
76583;BMP280;65462;52.148;7.940;2023-01-16T16:22:19;97015.41;;;4.90
76583;BMP280;65462;52.148;7.940;2023-01-16T16:25:08;97013.19;;;4.89
76583;BMP280;65462;52.148;7.940;2023-01-16T16:27:34;97015.03;;;4.88
76583;BMP280;65462;52.148;7.940;2023-01-16T16:29:59;97013.56;;;4.87
76583;BMP280;65462;52.148;7.940;2023-01-16T16:32:25;97009.06;;;4.88
76583;BMP280;65462;52.148;7.940;2023-01-16T16:34:54;97006.06;;;4.86
76583;BMP280;65462;52.148;7.940;2023-01-16T16:37:21;97010.56;;;4.89
76583;BMP280;65462;52.148;7.940;2023-01-16T16:39:53;96999.72;;;4.87
76583;BMP280;65462;52.148;7.940;2023-01-16T16:47:39;96989.28;;;4.87
76583;BMP280;65462;52.148;7.940;2023-01-16T16:52:46;96981.03;;;4.85
76583;BMP280;65462;52.148;7.940;2023-01-16T16:55:31;96977.28;;;4.82
76583;BMP280;65462;52.148;7.940;2023-01-16T16:57:58;96985.88;;;4.79
76583;BMP280;65462;52.148;7.940;2023-01-16T17:00:26;96973.56;;;4.80
76583;BMP280;65462;52.148;7.940;2023-01-16T17:03:17;96987.41;;;4.84
76583;BMP280;65462;52.148;7.940;2023-01-16T17:05:41;96975.44;;;4.83
76583;BMP280;65462;52.148;7.940;2023-01-16T17:08:12;96963.44;;;4.78